METAR AND TAF INFORMATION
METAR FOR GLRB
ADDS - METARS form results

(0631 UTC 20 April 2019)
Data provider http://aviationweather.gov/metar/data/
 
METAR text: GLRB 200600Z 00000KT 8000 NSC 23/22 Q1011 RMK BRVC
Conditions at: GLRB (ROBERTS INTL/MON, LR) observed 0600 UTC 20 April 2019
Temperature: 23.0°C (73°F)
Dewpoint: 22.0°C (72°F) [RH = 94%]
Pressure (altimeter): 29.85 inches Hg (1011.0 mb)
Winds: calm
Visibility: 5 miles ( 8 km)
Ceiling: at least 12,000 feet AGL
Clouds: sky clear below 12,000 feet AGL
Weather: no significant weather observed at this time

 AIRPORT MAP

 RUNWAY INFORMATION
Runway 04 Runway length 11000 ft Runway width 150 ft
Runway elevation 29 ft Runway displaced threshold 0 ft Runway heading 31
Runway 22 Runway length 11000 ft Runway width 150 ft
Runway elevation 25 ft Runway displaced threshold 1200 ft Runway heading 211

 AIRPORT FREQUENCIES
Type A/G Name A/G VOICE Frequency 345.2 MHZ
Type APP Name ROBERTS AP Frequency 124.5 MHZ
Type GND Name GND Frequency 121.9 MHZ
Type TWR Name ROBERTS TW Frequency 118.3 MHZ

 AIRPORT NEAR NAVIGATION AIDS
Type NDB Name Monrovia Roberts Frequency 263 KHZ
Type NDB Name Monrovia Roberts Frequency 372 KHZ
Type VOR-DME Name Monrovia Roberts Frequency 113800 KHZ



Powered by Virtual Airlines Manager [[v2.6.2]]